sensor_id;sensor_type;location;lat;lon;timestamp;pressure;altitude;pressure_sealevel;temperature;humidity
26697;BME280;14312;52.614;13.496;2022-11-12T00:01:17;102505.66;;;10.56;60.41
26697;BME280;14312;52.614;13.496;2022-11-12T00:04:03;102502.88;;;10.65;60.39
26697;BME280;14312;52.614;13.496;2022-11-12T00:06:49;102499.41;;;10.71;60.39
26697;BME280;14312;52.614;13.496;2022-11-12T00:09:35;102495.97;;;10.77;60.25
26697;BME280;14312;52.614;13.496;2022-11-12T00:12:20;102502.16;;;10.84;60.22
26697;BME280;14312;52.614;13.496;2022-11-12T00:15:07;102499.91;;;10.87;60.04
26697;BME280;14312;52.614;13.496;2022-11-12T00:17:53;102502.66;;;10.94;60.03
26697;BME280;14312;52.614;13.496;2022-11-12T00:20:39;102499.56;;;10.97;60.02
26697;BME280;14312;52.614;13.496;2022-11-12T00:23:25;102501.88;;;11.00;59.87
26697;BME280;14312;52.614;13.496;2022-11-12T00:26:10;102498.19;;;11.01;59.97
26697;BME280;14312;52.614;13.496;2022-11-12T00:29:01;102503.09;;;11.04;59.80
26697;BME280;14312;52.614;13.496;2022-11-12T00:31:47;102505.59;;;11.06;59.77
26697;BME280;14312;52.614;13.496;2022-11-12T00:34:33;102497.38;;;11.07;59.70
26697;BME280;14312;52.614;13.496;2022-11-12T00:37:19;102500.88;;;11.08;59.72
26697;BME280;14312;52.614;13.496;2022-11-12T00:40:06;102506.00;;;11.09;59.63
26697;BME280;14312;52.614;13.496;2022-11-12T00:42:52;102502.31;;;11.10;59.79
26697;BME280;14312;52.614;13.496;2022-11-12T00:45:38;102503.13;;;11.11;59.66
26697;BME280;14312;52.614;13.496;2022-11-12T00:48:24;102501.28;;;11.11;59.59
26697;BME280;14312;52.614;13.496;2022-11-12T00:51:09;102496.97;;;11.10;59.64
26697;BME280;14312;52.614;13.496;2022-11-12T00:53:55;102501.47;;;11.10;59.50
26697;BME280;14312;52.614;13.496;2022-11-12T00:56:41;102507.03;;;11.08;59.34
26697;BME280;14312;52.614;13.496;2022-11-12T00:59:27;102501.91;;;11.07;59.54
26697;BME280;14312;52.614;13.496;2022-11-12T01:02:13;102499.41;;;11.05;59.47
26697;BME280;14312;52.614;13.496;2022-11-12T01:05:02;102503.09;;;11.04;59.51
26697;BME280;14312;52.614;13.496;2022-11-12T01:07:48;102497.34;;;11.01;59.56
26697;BME280;14312;52.614;13.496;2022-11-12T01:10:35;102507.19;;;11.00;59.25
26697;BME280;14312;52.614;13.496;2022-11-12T01:13:21;102494.06;;;10.98;59.42
26697;BME280;14312;52.614;13.496;2022-11-12T01:16:13;102498.56;;;10.98;59.63
26697;BME280;14312;52.614;13.496;2022-11-12T01:19:00;102498.94;;;10.95;59.63
26697;BME280;14312;52.614;13.496;2022-11-12T01:21:48;102500.19;;;10.92;59.48
26697;BME280;14312;52.614;13.496;2022-11-12T01:24:34;102496.88;;;10.90;59.60
26697;BME280;14312;52.614;13.496;2022-11-12T01:27:20;102500.97;;;10.86;59.48
26697;BME280;14312;52.614;13.496;2022-11-12T01:30:06;102497.66;;;10.84;59.57
26697;BME280;14312;52.614;13.496;2022-11-12T01:32:52;102501.53;;;10.82;59.57
26697;BME280;14312;52.614;13.496;2022-11-12T01:35:38;102493.09;;;10.78;59.44
26697;BME280;14312;52.614;13.496;2022-11-12T01:38:24;102493.50;;;10.75;59.50
26697;BME280;14312;52.614;13.496;2022-11-12T01:41:16;102500.06;;;10.73;59.47
26697;BME280;14312;52.614;13.496;2022-11-12T01:47:33;102498.34;;;10.65;59.80
26697;BME280;14312;52.614;13.496;2022-11-12T01:53:11;102497.03;;;10.54;59.52
26697;BME280;14312;52.614;13.496;2022-11-12T01:55:59;102505.63;;;10.50;59.52
26697;BME280;14312;52.614;13.496;2022-11-12T01:58:45;102501.88;;;10.44;59.47
26697;BME280;14312;52.614;13.496;2022-11-12T02:01:35;102499.59;;;10.41;59.62
26697;BME280;14312;52.614;13.496;2022-11-12T02:04:22;102501.00;;;10.37;59.55
26697;BME280;14312;52.614;13.496;2022-11-12T02:07:09;102497.72;;;10.35;59.73
26697;BME280;14312;52.614;13.496;2022-11-12T02:09:57;102503.03;;;10.35;59.87
26697;BME280;14312;52.614;13.496;2022-11-12T02:12:44;102514.53;;;10.36;59.72
26697;BME280;14312;52.614;13.496;2022-11-12T02:15:49;102508.75;;;10.32;59.78
26697;BME280;14312;52.614;13.496;2022-11-12T02:18:36;102512.41;;;10.31;59.69
26697;BME280;14312;52.614;13.496;2022-11-12T02:21:23;102516.91;;;10.31;59.68
26697;BME280;14312;52.614;13.496;2022-11-12T02:27:00;102519.53;;;10.24;59.84
26697;BME280;14312;52.614;13.496;2022-11-12T02:29:45;102520.53;;;10.23;59.62
26697;BME280;14312;52.614;13.496;2022-11-12T02:32:31;102522.59;;;10.21;59.87
26697;BME280;14312;52.614;13.496;2022-11-12T02:35:17;102520.94;;;10.20;60.06
26697;BME280;14312;52.614;13.496;2022-11-12T02:38:04;102521.94;;;10.19;59.75
26697;BME280;14312;52.614;13.496;2022-11-12T02:40:51;102526.63;;;10.17;59.90
26697;BME280;14312;52.614;13.496;2022-11-12T02:43:38;102528.28;;;10.18;59.97
26697;BME280;14312;52.614;13.496;2022-11-12T02:46:26;102522.28;;;10.16;59.91
26697;BME280;14312;52.614;13.496;2022-11-12T02:49:11;102541.31;;;10.13;59.48
26697;BME280;14312;52.614;13.496;2022-11-12T02:52:00;102538.00;;;10.11;59.92
26697;BME280;14312;52.614;13.496;2022-11-12T02:54:46;102540.44;;;10.06;59.55
26697;BME280;14312;52.614;13.496;2022-11-12T02:57:31;102542.84;;;10.01;59.66
26697;BME280;14312;52.614;13.496;2022-11-12T03:00:17;102538.72;;;9.98;59.41
26697;BME280;14312;52.614;13.496;2022-11-12T03:03:03;102547.28;;;9.94;59.68
26697;BME280;14312;52.614;13.496;2022-11-12T03:06:00;102541.66;;;9.89;59.97
26697;BME280;14312;52.614;13.496;2022-11-12T03:08:47;102541.59;;;9.82;59.62
26697;BME280;14312;52.614;13.496;2022-11-12T03:11:33;102539.50;;;9.77;60.00
26697;BME280;14312;52.614;13.496;2022-11-12T03:14:18;102546.19;;;9.73;59.79
26697;BME280;14312;52.614;13.496;2022-11-12T03:17:07;102549.25;;;9.70;59.86
26697;BME280;14312;52.614;13.496;2022-11-12T03:19:54;102561.28;;;9.66;59.76
26697;BME280;14312;52.614;13.496;2022-11-12T03:22:40;102558.00;;;9.64;59.93
26697;BME280;14312;52.614;13.496;2022-11-12T03:25:27;102567.16;;;9.62;59.95
26697;BME280;14312;52.614;13.496;2022-11-12T03:28:14;102571.00;;;9.59;59.86
26697;BME280;14312;52.614;13.496;2022-11-12T03:31:00;102566.06;;;9.56;60.08
26697;BME280;14312;52.614;13.496;2022-11-12T03:33:46;102567.72;;;9.57;60.09
26697;BME280;14312;52.614;13.496;2022-11-12T03:36:32;102570.56;;;9.56;60.16
26697;BME280;14312;52.614;13.496;2022-11-12T03:39:18;102570.09;;;9.52;59.99
26697;BME280;14312;52.614;13.496;2022-11-12T03:42:04;102570.50;;;9.49;60.39
26697;BME280;14312;52.614;13.496;2022-11-12T03:44:50;102566.34;;;9.47;60.28
26697;BME280;14312;52.614;13.496;2022-11-12T03:47:40;102572.06;;;9.43;60.37
26697;BME280;14312;52.614;13.496;2022-11-12T03:50:28;102564.25;;;9.42;60.15
26697;BME280;14312;52.614;13.496;2022-11-12T03:53:14;102561.94;;;9.39;59.75
26697;BME280;14312;52.614;13.496;2022-11-12T03:56:00;102563.34;;;9.35;60.01
26697;BME280;14312;52.614;13.496;2022-11-12T03:58:45;102573.06;;;9.28;59.70
26697;BME280;14312;52.614;13.496;2022-11-12T04:01:31;102568.47;;;9.22;60.06
26697;BME280;14312;52.614;13.496;2022-11-12T04:04:17;102564.91;;;9.15;59.82
26697;BME280;14312;52.614;13.496;2022-11-12T04:07:05;102569.13;;;9.09;60.10
26697;BME280;14312;52.614;13.496;2022-11-12T04:10:09;102564.50;;;9.03;59.96
26697;BME280;14312;52.614;13.496;2022-11-12T04:12:55;102573.03;;;8.98;59.91
26697;BME280;14312;52.614;13.496;2022-11-12T04:16:05;102570.44;;;8.90;60.07
26697;BME280;14312;52.614;13.496;2022-11-12T04:19:11;102580.53;;;8.80;59.89
26697;BME280;14312;52.614;13.496;2022-11-12T04:22:16;102583.88;;;8.74;59.58
26697;BME280;14312;52.614;13.496;2022-11-12T04:25:02;102580.28;;;8.67;59.85
26697;BME280;14312;52.614;13.496;2022-11-12T04:28:06;102589.97;;;8.60;60.03
26697;BME280;14312;52.614;13.496;2022-11-12T04:30:57;102589.03;;;8.53;60.17
26697;BME280;14312;52.614;13.496;2022-11-12T04:33:43;102586.28;;;8.46;60.00
26697;BME280;14312;52.614;13.496;2022-11-12T04:36:31;102587.00;;;8.40;60.19
26697;BME280;14312;52.614;13.496;2022-11-12T04:39:17;102587.53;;;8.36;60.21
26697;BME280;14312;52.614;13.496;2022-11-12T04:42:07;102596.84;;;8.32;60.32
26697;BME280;14312;52.614;13.496;2022-11-12T04:45:12;102591.88;;;8.29;60.72
26697;BME280;14312;52.614;13.496;2022-11-12T04:48:00;102589.53;;;8.25;60.28
26697;BME280;14312;52.614;13.496;2022-11-12T04:50:52;102603.19;;;8.22;60.59
26697;BME280;14312;52.614;13.496;2022-11-12T04:53:41;102601.88;;;8.18;60.55
26697;BME280;14312;52.614;13.496;2022-11-12T04:56:27;102602.25;;;8.15;60.62
26697;BME280;14312;52.614;13.496;2022-11-12T04:59:12;102603.56;;;8.11;60.63
26697;BME280;14312;52.614;13.496;2022-11-12T05:01:58;102604.28;;;8.05;60.52
26697;BME280;14312;52.614;13.496;2022-11-12T05:04:44;102600.78;;;8.05;60.72
26697;BME280;14312;52.614;13.496;2022-11-12T05:07:31;102610.94;;;8.01;60.40
26697;BME280;14312;52.614;13.496;2022-11-12T05:10:17;102603.50;;;7.97;60.60
26697;BME280;14312;52.614;13.496;2022-11-12T05:13:03;102601.38;;;7.92;60.55
26697;BME280;14312;52.614;13.496;2022-11-12T05:15:49;102612.31;;;7.89;60.34
26697;BME280;14312;52.614;13.496;2022-11-12T05:18:34;102616.34;;;7.85;60.51
26697;BME280;14312;52.614;13.496;2022-11-12T05:21:20;102610.56;;;7.81;60.89
26697;BME280;14312;52.614;13.496;2022-11-12T05:24:24;102603.09;;;7.77;60.58
26697;BME280;14312;52.614;13.496;2022-11-12T05:27:20;102614.06;;;7.74;61.14
26697;BME280;14312;52.614;13.496;2022-11-12T05:30:06;102604.63;;;7.71;60.73
26697;BME280;14312;52.614;13.496;2022-11-12T05:32:52;102606.97;;;7.66;60.58
26697;BME280;14312;52.614;13.496;2022-11-12T05:35:38;102600.84;;;7.66;60.44
26697;BME280;14312;52.614;13.496;2022-11-12T05:38:23;102619.06;;;7.61;60.41
26697;BME280;14312;52.614;13.496;2022-11-12T05:41:09;102615.13;;;7.57;60.72
26697;BME280;14312;52.614;13.496;2022-11-12T05:43:55;102607.84;;;7.51;60.68
26697;BME280;14312;52.614;13.496;2022-11-12T05:46:41;102618.78;;;7.47;60.68
26697;BME280;14312;52.614;13.496;2022-11-12T05:49:27;102613.84;;;7.44;61.05
26697;BME280;14312;52.614;13.496;2022-11-12T05:52:13;102613.34;;;7.41;61.07
26697;BME280;14312;52.614;13.496;2022-11-12T05:54:59;102614.53;;;7.38;61.19
26697;BME280;14312;52.614;13.496;2022-11-12T05:57:45;102612.88;;;7.37;60.96
26697;BME280;14312;52.614;13.496;2022-11-12T06:00:30;102610.38;;;7.36;61.00
26697;BME280;14312;52.614;13.496;2022-11-12T06:03:16;102613.19;;;7.34;61.27
26697;BME280;14312;52.614;13.496;2022-11-12T06:06:02;102615.84;;;7.34;61.07
26697;BME280;14312;52.614;13.496;2022-11-12T06:08:48;102612.53;;;7.32;61.38
26697;BME280;14312;52.614;13.496;2022-11-12T06:11:35;102620.47;;;7.32;61.04
26697;BME280;14312;52.614;13.496;2022-11-12T06:14:21;102623.31;;;7.31;61.15
26697;BME280;14312;52.614;13.496;2022-11-12T06:17:06;102615.38;;;7.31;61.33
26697;BME280;14312;52.614;13.496;2022-11-12T06:19:52;102621.66;;;7.30;61.20
26697;BME280;14312;52.614;13.496;2022-11-12T06:22:38;102617.53;;;7.27;60.93
26697;BME280;14312;52.614;13.496;2022-11-12T06:25:24;102613.38;;;7.25;61.01
26697;BME280;14312;52.614;13.496;2022-11-12T06:28:10;102619.84;;;7.22;61.21
26697;BME280;14312;52.614;13.496;2022-11-12T06:30:55;102625.47;;;7.19;61.21
26697;BME280;14312;52.614;13.496;2022-11-12T06:33:42;102632.78;;;7.17;61.06
26697;BME280;14312;52.614;13.496;2022-11-12T06:36:28;102635.63;;;7.16;61.44
26697;BME280;14312;52.614;13.496;2022-11-12T06:39:13;102650.69;;;7.15;61.50
26697;BME280;14312;52.614;13.496;2022-11-12T06:42:00;102639.25;;;7.15;61.38
26697;BME280;14312;52.614;13.496;2022-11-12T06:44:47;102651.50;;;7.16;61.58
26697;BME280;14312;52.614;13.496;2022-11-12T06:47:33;102654.00;;;7.17;61.61
26697;BME280;14312;52.614;13.496;2022-11-12T06:50:18;102657.28;;;7.19;61.82
26697;BME280;14312;52.614;13.496;2022-11-12T06:53:04;102662.28;;;7.22;61.92
26697;BME280;14312;52.614;13.496;2022-11-12T06:56:00;102663.25;;;7.29;62.46
26697;BME280;14312;52.614;13.496;2022-11-12T06:58:46;102674.03;;;7.36;62.21
26697;BME280;14312;52.614;13.496;2022-11-12T07:01:32;102661.59;;;7.44;62.40
26697;BME280;14312;52.614;13.496;2022-11-12T07:04:17;102652.59;;;7.54;62.25
26697;BME280;14312;52.614;13.496;2022-11-12T07:07:03;102668.16;;;7.65;62.30
26697;BME280;14312;52.614;13.496;2022-11-12T07:09:51;102668.78;;;7.75;62.24
26697;BME280;14312;52.614;13.496;2022-11-12T07:12:37;102666.59;;;7.86;62.56
26697;BME280;14312;52.614;13.496;2022-11-12T07:15:23;102660.72;;;7.99;62.47
26697;BME280;14312;52.614;13.496;2022-11-12T07:18:09;102665.63;;;8.10;62.18
26697;BME280;14312;52.614;13.496;2022-11-12T07:23:46;102675.84;;;8.30;62.66
26697;BME280;14312;52.614;13.496;2022-11-12T07:26:31;102676.47;;;8.40;62.39
26697;BME280;14312;52.614;13.496;2022-11-12T07:29:17;102670.59;;;8.52;62.48
26697;BME280;14312;52.614;13.496;2022-11-12T07:32:03;102682.81;;;8.61;62.25
26697;BME280;14312;52.614;13.496;2022-11-12T07:34:49;102682.94;;;8.68;62.54
26697;BME280;14312;52.614;13.496;2022-11-12T07:37:35;102671.25;;;8.77;62.04
26697;BME280;14312;52.614;13.496;2022-11-12T07:40:21;102683.81;;;8.83;62.30
26697;BME280;14312;52.614;13.496;2022-11-12T07:43:07;102688.25;;;8.91;61.85
26697;BME280;14312;52.614;13.496;2022-11-12T07:45:56;102699.38;;;8.94;62.35
26697;BME280;14312;52.614;13.496;2022-11-12T07:48:42;102697.00;;;8.99;62.38
26697;BME280;14312;52.614;13.496;2022-11-12T07:51:29;102689.31;;;9.04;62.14
26697;BME280;14312;52.614;13.496;2022-11-12T07:54:15;102697.56;;;9.10;62.10
26697;BME280;14312;52.614;13.496;2022-11-12T07:57:03;102689.53;;;9.18;62.10
26697;BME280;14312;52.614;13.496;2022-11-12T07:59:49;102686.78;;;9.26;62.17
26697;BME280;14312;52.614;13.496;2022-11-12T08:02:39;102693.03;;;9.33;62.27
26697;BME280;14312;52.614;13.496;2022-11-12T08:05:26;102689.31;;;9.42;62.65
26697;BME280;14312;52.614;13.496;2022-11-12T08:08:14;102690.88;;;9.51;62.37
26697;BME280;14312;52.614;13.496;2022-11-12T08:10:59;102695.56;;;9.64;62.60
26697;BME280;14312;52.614;13.496;2022-11-12T08:13:45;102685.94;;;9.77;62.50
26697;BME280;14312;52.614;13.496;2022-11-12T08:16:32;102690.44;;;9.92;62.52
26697;BME280;14312;52.614;13.496;2022-11-12T08:19:18;102695.28;;;10.03;62.51
26697;BME280;14312;52.614;13.496;2022-11-12T08:22:09;102697.13;;;10.17;62.45
26697;BME280;14312;52.614;13.496;2022-11-12T08:24:54;102683.34;;;10.28;62.41
26697;BME280;14312;52.614;13.496;2022-11-12T08:27:40;102681.81;;;10.40;62.42
26697;BME280;14312;52.614;13.496;2022-11-12T08:30:28;102699.78;;;10.53;62.30
26697;BME280;14312;52.614;13.496;2022-11-12T08:33:14;102696.84;;;10.63;62.19
26697;BME280;14312;52.614;13.496;2022-11-12T08:36:04;102680.53;;;10.72;62.11
26697;BME280;14312;52.614;13.496;2022-11-12T08:38:52;102695.00;;;10.84;62.14
26697;BME280;14312;52.614;13.496;2022-11-12T08:41:38;102684.03;;;10.94;61.96
26697;BME280;14312;52.614;13.496;2022-11-12T08:44:26;102693.16;;;11.06;62.00
26697;BME280;14312;52.614;13.496;2022-11-12T08:47:12;102691.19;;;11.15;62.14
26697;BME280;14312;52.614;13.496;2022-11-12T08:49:58;102689.22;;;11.30;62.30
26697;BME280;14312;52.614;13.496;2022-11-12T08:52:43;102677.84;;;11.43;62.18
26697;BME280;14312;52.614;13.496;2022-11-12T08:55:30;102696.81;;;11.54;62.02
26697;BME280;14312;52.614;13.496;2022-11-12T08:58:18;102685.38;;;11.67;61.90
26697;BME280;14312;52.614;13.496;2022-11-12T09:01:05;102682.19;;;11.78;62.28
26697;BME280;14312;52.614;13.496;2022-11-12T09:03:51;102698.66;;;11.88;61.94
26697;BME280;14312;52.614;13.496;2022-11-12T09:06:39;102696.06;;;12.01;62.08
26697;BME280;14312;52.614;13.496;2022-11-12T09:09:26;102695.09;;;12.15;61.87
26697;BME280;14312;52.614;13.496;2022-11-12T09:12:12;102696.19;;;12.28;61.96
26697;BME280;14312;52.614;13.496;2022-11-12T09:15:05;102693.56;;;12.41;61.89
26697;BME280;14312;52.614;13.496;2022-11-12T09:17:59;102699.75;;;12.54;62.06
26697;BME280;14312;52.614;13.496;2022-11-12T09:20:45;102686.22;;;12.69;61.93
26697;BME280;14312;52.614;13.496;2022-11-12T09:23:33;102700.25;;;12.84;61.80
26697;BME280;14312;52.614;13.496;2022-11-12T09:26:22;102700.88;;;13.00;61.84
26697;BME280;14312;52.614;13.496;2022-11-12T09:29:08;102701.50;;;13.15;61.88
26697;BME280;14312;52.614;13.496;2022-11-12T09:31:54;102690.81;;;13.28;61.83
26697;BME280;14312;52.614;13.496;2022-11-12T09:34:40;102696.34;;;13.46;61.59
26697;BME280;14312;52.614;13.496;2022-11-12T09:37:26;102697.34;;;13.58;61.46
26697;BME280;14312;52.614;13.496;2022-11-12T09:40:17;102702.69;;;13.71;61.53
26697;BME280;14312;52.614;13.496;2022-11-12T09:43:15;102707.78;;;13.86;61.52
26697;BME280;14312;52.614;13.496;2022-11-12T09:46:13;102691.47;;;14.01;61.54
26697;BME280;14312;52.614;13.496;2022-11-12T09:52:09;102699.59;;;14.32;61.32
26697;BME280;14312;52.614;13.496;2022-11-12T09:55:28;102703.44;;;14.49;61.06
26697;BME280;14312;52.614;13.496;2022-11-12T09:58:17;102686.66;;;14.61;60.94
26697;BME280;14312;52.614;13.496;2022-11-12T10:01:22;102690.28;;;14.73;60.81
26697;BME280;14312;52.614;13.496;2022-11-12T10:16:36;102709.78;;;15.18;60.09
26697;BME280;14312;52.614;13.496;2022-11-12T10:25:16;102709.09;;;15.54;59.97
26697;BME280;14312;52.614;13.496;2022-11-12T10:28:23;102688.06;;;15.69;59.93
26697;BME280;14312;52.614;13.496;2022-11-12T10:31:17;102685.28;;;15.76;59.57
26697;BME280;14312;52.614;13.496;2022-11-12T10:37:11;102690.88;;;15.92;59.17
26697;BME280;14312;52.614;13.496;2022-11-12T10:39:58;102688.34;;;15.97;58.93
26697;BME280;14312;52.614;13.496;2022-11-12T10:43:00;102694.47;;;16.04;59.13
26697;BME280;14312;52.614;13.496;2022-11-12T10:45:48;102689.84;;;16.12;59.28
26697;BME280;14312;52.614;13.496;2022-11-12T10:48:34;102686.84;;;16.20;59.07
26697;BME280;14312;52.614;13.496;2022-11-12T10:51:27;102696.81;;;16.31;59.13
26697;BME280;14312;52.614;13.496;2022-11-12T10:54:35;102690.66;;;16.42;59.04
26697;BME280;14312;52.614;13.496;2022-11-12T10:57:23;102696.31;;;16.52;59.18
26697;BME280;14312;52.614;13.496;2022-11-12T11:03:01;102675.94;;;16.74;58.78
26697;BME280;14312;52.614;13.496;2022-11-12T11:05:51;102691.28;;;16.86;58.58
26697;BME280;14312;52.614;13.496;2022-11-12T11:08:39;102679.13;;;16.95;58.58
26697;BME280;14312;52.614;13.496;2022-11-12T11:11:30;102666.50;;;17.07;58.76
26697;BME280;14312;52.614;13.496;2022-11-12T11:14:25;102670.03;;;17.19;58.17
26697;BME280;14312;52.614;13.496;2022-11-12T11:17:16;102659.03;;;17.32;58.15
26697;BME280;14312;52.614;13.496;2022-11-12T11:20:05;102663.34;;;17.45;58.11
26697;BME280;14312;52.614;13.496;2022-11-12T11:23:06;102670.94;;;17.59;57.63
26697;BME280;14312;52.614;13.496;2022-11-12T11:26:00;102659.94;;;17.73;57.09
26697;BME280;14312;52.614;13.496;2022-11-12T11:32:21;102648.59;;;17.99;57.13
26697;BME280;14312;52.614;13.496;2022-11-12T11:35:23;102648.59;;;18.27;57.38
26697;BME280;14312;52.614;13.496;2022-11-12T11:38:19;102654.84;;;18.73;57.96
26697;BME280;14312;52.614;13.496;2022-11-12T11:45:01;102656.94;;;20.25;55.38
26697;BME280;14312;52.614;13.496;2022-11-12T11:57:47;102635.78;;;23.08;52.08
26697;BME280;14312;52.614;13.496;2022-11-12T12:12:59;102643.13;;;25.57;46.93
26697;BME280;14312;52.614;13.496;2022-11-12T12:22:17;102633.31;;;25.98;45.58
26697;BME280;14312;52.614;13.496;2022-11-12T12:25:21;102631.59;;;26.02;45.10
26697;BME280;14312;52.614;13.496;2022-11-12T12:31:01;102615.16;;;26.07;45.98
26697;BME280;14312;52.614;13.496;2022-11-12T12:33:53;102616.50;;;26.29;46.23
26697;BME280;14312;52.614;13.496;2022-11-12T12:36:44;102608.88;;;26.58;46.93
26697;BME280;14312;52.614;13.496;2022-11-12T12:45:46;102605.34;;;27.31;42.77
26697;BME280;14312;52.614;13.496;2022-11-12T12:48:39;102606.69;;;27.20;41.90
26697;BME280;14312;52.614;13.496;2022-11-12T12:51:29;102603.31;;;26.96;41.24
26697;BME280;14312;52.614;13.496;2022-11-12T13:03:45;102593.09;;;26.18;41.67
26697;BME280;14312;52.614;13.496;2022-11-12T13:06:50;102598.75;;;26.07;42.57
26697;BME280;14312;52.614;13.496;2022-11-12T13:09:37;102586.19;;;26.06;43.72
26697;BME280;14312;52.614;13.496;2022-11-12T13:13:00;102594.09;;;26.27;43.25
26697;BME280;14312;52.614;13.496;2022-11-12T13:15:52;102581.09;;;26.51;43.01
26697;BME280;14312;52.614;13.496;2022-11-12T13:21:30;102589.88;;;26.80;42.94
26697;BME280;14312;52.614;13.496;2022-11-12T13:24:16;102585.44;;;26.84;42.05
26697;BME280;14312;52.614;13.496;2022-11-12T13:27:04;102583.81;;;26.83;41.97
26697;BME280;14312;52.614;13.496;2022-11-12T13:29:51;102586.03;;;26.81;41.90
26697;BME280;14312;52.614;13.496;2022-11-12T13:32:43;102593.13;;;26.82;42.00
26697;BME280;14312;52.614;13.496;2022-11-12T13:35:38;102594.22;;;26.81;41.91
26697;BME280;14312;52.614;13.496;2022-11-12T13:38:24;102584.91;;;26.82;42.18
26697;BME280;14312;52.614;13.496;2022-11-12T13:41:16;102590.72;;;26.95;41.48
26697;BME280;14312;52.614;13.496;2022-11-12T13:44:26;102590.66;;;27.13;41.71
26697;BME280;14312;52.614;13.496;2022-11-12T13:47:17;102595.19;;;27.32;41.34
26697;BME280;14312;52.614;13.496;2022-11-12T13:50:07;102591.34;;;27.46;41.63
26697;BME280;14312;52.614;13.496;2022-11-12T13:52:59;102595.84;;;27.56;41.65
26697;BME280;14312;52.614;13.496;2022-11-12T13:55:50;102594.19;;;27.69;40.73
26697;BME280;14312;52.614;13.496;2022-11-12T13:58:36;102593.53;;;27.72;40.94
26697;BME280;14312;52.614;13.496;2022-11-12T14:01:24;102590.31;;;27.70;41.09
26697;BME280;14312;52.614;13.496;2022-11-12T14:04:12;102586.09;;;27.63;39.58
26697;BME280;14312;52.614;13.496;2022-11-12T14:07:13;102585.47;;;27.39;39.04
26697;BME280;14312;52.614;13.496;2022-11-12T14:13:42;102590.03;;;26.57;39.32
26697;BME280;14312;52.614;13.496;2022-11-12T14:17:19;102571.84;;;26.15;40.33
26697;BME280;14312;52.614;13.496;2022-11-12T14:20:22;102586.63;;;25.76;39.67
26697;BME280;14312;52.614;13.496;2022-11-12T14:23:21;102585.69;;;25.43;40.77
26697;BME280;14312;52.614;13.496;2022-11-12T14:26:10;102586.22;;;25.21;40.60
26697;BME280;14312;52.614;13.496;2022-11-12T14:28:56;102588.38;;;24.95;40.56
26697;BME280;14312;52.614;13.496;2022-11-12T14:31:42;102577.78;;;24.65;41.17
26697;BME280;14312;52.614;13.496;2022-11-12T14:34:29;102583.72;;;24.38;41.31
26697;BME280;14312;52.614;13.496;2022-11-12T14:37:33;102576.91;;;23.97;41.35
26697;BME280;14312;52.614;13.496;2022-11-12T14:40:21;102575.00;;;23.48;41.42
26697;BME280;14312;52.614;13.496;2022-11-12T14:43:40;102577.88;;;22.82;42.25
26697;BME280;14312;52.614;13.496;2022-11-12T14:46:36;102575.69;;;22.18;42.80
26697;BME280;14312;52.614;13.496;2022-11-12T14:49:41;102590.44;;;21.55;43.41
26697;BME280;14312;52.614;13.496;2022-11-12T14:52:30;102591.47;;;20.97;44.03
26697;BME280;14312;52.614;13.496;2022-11-12T14:55:26;102584.00;;;20.40;44.74
26697;BME280;14312;52.614;13.496;2022-11-12T14:58:14;102585.09;;;19.90;44.95
26697;BME280;14312;52.614;13.496;2022-11-12T15:01:36;102580.91;;;19.34;45.89
26697;BME280;14312;52.614;13.496;2022-11-12T15:04:24;102584.28;;;18.86;46.08
26697;BME280;14312;52.614;13.496;2022-11-12T15:07:25;102587.38;;;18.45;46.98
26697;BME280;14312;52.614;13.496;2022-11-12T15:10:28;102583.97;;;18.04;47.63
26697;BME280;14312;52.614;13.496;2022-11-12T15:13:18;102580.56;;;17.69;47.81
26697;BME280;14312;52.614;13.496;2022-11-12T15:16:05;102573.34;;;17.34;48.12
26697;BME280;14312;52.614;13.496;2022-11-12T15:21:58;102585.22;;;16.75;49.14
26697;BME280;14312;52.614;13.496;2022-11-12T15:24:45;102590.19;;;16.48;49.47
26697;BME280;14312;52.614;13.496;2022-11-12T15:27:37;102585.78;;;16.24;49.43
26697;BME280;14312;52.614;13.496;2022-11-12T15:30:26;102584.06;;;15.99;50.02
26697;BME280;14312;52.614;13.496;2022-11-12T15:33:22;102585.00;;;15.75;50.86
26697;BME280;14312;52.614;13.496;2022-11-12T15:36:18;102584.66;;;15.53;51.27
26697;BME280;14312;52.614;13.496;2022-11-12T15:39:11;102587.75;;;15.32;51.33
26697;BME280;14312;52.614;13.496;2022-11-12T15:42:01;102586.31;;;15.11;51.52
26697;BME280;14312;52.614;13.496;2022-11-12T15:44:47;102585.25;;;14.94;51.52
26697;BME280;14312;52.614;13.496;2022-11-12T15:47:34;102586.84;;;14.77;51.68
26697;BME280;14312;52.614;13.496;2022-11-12T15:50:22;102586.34;;;14.62;52.11
26697;BME280;14312;52.614;13.496;2022-11-12T15:53:08;102584.00;;;14.47;52.10
26697;BME280;14312;52.614;13.496;2022-11-12T15:55:55;102594.78;;;14.34;52.48
26697;BME280;14312;52.614;13.496;2022-11-12T15:58:41;102584.16;;;14.21;52.86
26697;BME280;14312;52.614;13.496;2022-11-12T16:01:27;102595.34;;;14.11;53.24
26697;BME280;14312;52.614;13.496;2022-11-12T16:04:13;102597.84;;;14.06;53.48
26697;BME280;14312;52.614;13.496;2022-11-12T16:06:58;102605.94;;;13.99;53.52
26697;BME280;14312;52.614;13.496;2022-11-12T16:09:45;102599.78;;;13.92;53.47
26697;BME280;14312;52.614;13.496;2022-11-12T16:12:31;102595.47;;;13.85;53.67
26697;BME280;14312;52.614;13.496;2022-11-12T16:15:18;102600.44;;;13.75;53.66
26697;BME280;14312;52.614;13.496;2022-11-12T16:18:08;102599.03;;;13.65;54.02
26697;BME280;14312;52.614;13.496;2022-11-12T16:20:54;102597.03;;;13.54;54.01